Dane County Regional Airport

Airport
ICAO code: 
KMSN
Summary
ICAO Region: 
NAM
Territory: 
Location: 
Madison, Wisonsin,
Coordinates: 
Aerial View: 
43° 8' 11.287" N, 89° 20' 44.91" W
Airport WX: 
Cumulonimbus
Metar
Observation
KMSN 040653Z 00000KT 7SM CLR 00/M01 A3016 RMK AO2 SLP221 T00001011
Station
Madison, Dane County Regional-Truax Field
Date/Time
2021-12-04 06:53:00
Wind direction
Wind speed
00 kts
Lowest cloud amount
n/a
Temperature
0°C
Dew point
-1.1°C
Humidity
92%
Weather condition
n/a

Description

Dane County Regional Airport, formerly known as Truax Field, is a joint civil-military (ANG) public use airport located 9 km northeast of the central business district of Madison, Wisconsin.

Climatology

Humid continental climate (Köppen climate classification Dfa) - characterized by four seasons: cold, windy, snowy winters, mild springs, hot, humid summers, and crisp and relatively short autumns. Precipitation reaches its lowest in January and February and peaks in summer and latter half of spring.

Runways

Designator Length Width Surface Rops
14/32 1782 46 CON Yes/Yes
3/21 2195 46 CON Yes/Yes
18/36 2745 46 CON Yes/Yes
Airport map: 
Aerial View: 

SKYbrary Partners:

Safety knowledge contributed by: